createdAt,value
2022-11-07T00:00:02.235Z,8.18
2022-11-07T00:02:30.593Z,7.90
2022-11-07T00:04:58.684Z,6.72
2022-11-07T00:07:28.430Z,6.38
2022-11-07T00:09:56.711Z,5.05
2022-11-07T00:12:25.090Z,6.72
2022-11-07T00:14:55.951Z,5.53
2022-11-07T00:17:24.278Z,5.30
2022-11-07T00:19:52.551Z,5.32
2022-11-07T00:22:22.462Z,6.43
2022-11-07T00:24:53.447Z,8.15
2022-11-07T00:41:39.798Z,7.18
2022-11-07T00:44:29.544Z,5.85
2022-11-07T00:46:57.783Z,5.28
2022-11-07T00:49:27.799Z,5.93
2022-11-07T00:51:56.125Z,4.97
2022-11-07T00:54:24.431Z,6.13
2022-11-07T00:56:54.093Z,5.05
2022-11-07T00:59:22.239Z,5.10
2022-11-07T01:01:50.548Z,4.65
2022-11-07T01:04:36.207Z,3.42
2022-11-07T01:07:06.985Z,3.25
2022-11-07T01:09:35.255Z,3.45
2022-11-07T01:12:08.345Z,4.25
2022-11-07T01:14:37.394Z,2.53
2022-11-07T01:17:05.746Z,4.18
2022-11-07T01:19:33.974Z,4.35
2022-11-07T01:22:02.143Z,4.70
2022-11-07T01:24:30.353Z,5.50
2022-11-07T01:26:58.532Z,17.42
2022-11-07T01:29:28.444Z,25.60
2022-11-07T01:31:56.665Z,3.30
2022-11-07T01:34:24.994Z,4.15
2022-11-07T01:36:53.842Z,3.83
2022-11-07T01:40:04.648Z,3.95
2022-11-07T01:42:33.006Z,4.68
2022-11-07T01:45:02.823Z,3.78
2022-11-07T01:47:34.480Z,3.88
2022-11-07T01:50:03.064Z,5.03
2022-11-07T01:52:34.821Z,2.85
2022-11-07T01:55:09.582Z,3.60
2022-11-07T01:57:45.535Z,3.60
2022-11-07T02:00:19.419Z,4.00
2022-11-07T02:02:50.593Z,3.88
2022-11-07T02:05:25.511Z,5.05
2022-11-07T02:07:58.087Z,7.50
2022-11-07T02:10:27.794Z,5.95
2022-11-07T02:12:59.091Z,4.70
2022-11-07T02:15:29.072Z,3.60
2022-11-07T02:17:58.792Z,3.00
2022-11-07T02:20:27.203Z,3.55
2022-11-07T02:23:12.600Z,4.00
2022-11-07T02:25:42.754Z,5.32
2022-11-07T02:28:13.426Z,4.05
2022-11-07T02:30:41.574Z,3.20
2022-11-07T02:33:19.371Z,5.88
2022-11-07T02:35:49.060Z,4.07
2022-11-07T02:38:21.213Z,3.50
2022-11-07T02:40:53.285Z,6.50
2022-11-07T02:43:25.038Z,4.60
2022-11-07T02:45:53.572Z,3.30
2022-11-07T02:48:21.716Z,3.30
2022-11-07T02:50:49.859Z,4.10
2022-11-07T02:53:18.382Z,8.75
2022-11-07T02:55:46.690Z,6.13
2022-11-07T02:58:16.605Z,3.47
2022-11-07T03:00:46.119Z,5.00
2022-11-07T03:03:15.360Z,3.30
2022-11-07T03:05:43.834Z,2.40
2022-11-07T03:08:12.029Z,3.13
2022-11-07T03:10:40.359Z,2.67
2022-11-07T03:13:09.975Z,3.03
2022-11-07T03:15:39.776Z,3.15
2022-11-07T03:18:07.967Z,2.65
2022-11-07T03:20:36.179Z,2.75
2022-11-07T03:23:04.624Z,2.50
2022-11-07T03:25:32.794Z,5.68
2022-11-07T03:28:01.051Z,2.72
2022-11-07T03:30:29.419Z,2.92
2022-11-07T03:32:59.417Z,2.75
2022-11-07T03:35:28.433Z,6.90
2022-11-07T03:37:57.527Z,3.65
2022-11-07T03:40:25.815Z,2.97
2022-11-07T03:42:54.331Z,2.60
2022-11-07T03:45:22.791Z,3.25
2022-11-07T03:47:51.080Z,3.58
2022-11-07T03:50:22.490Z,6.00
2022-11-07T03:52:50.923Z,2.88
2022-11-07T03:55:19.472Z,2.95
2022-11-07T03:57:48.065Z,3.33
2022-11-07T04:00:17.829Z,2.60
2022-11-07T04:02:46.561Z,3.00
2022-11-07T04:05:14.743Z,3.85
2022-11-07T04:07:44.468Z,3.47
2022-11-07T04:10:12.948Z,3.50
2022-11-07T04:12:58.414Z,3.53
2022-11-07T04:15:43.914Z,2.85
2022-11-07T04:18:12.402Z,3.25
2022-11-07T04:20:40.653Z,4.82
2022-11-07T04:23:23.320Z,4.57
2022-11-07T04:26:08.765Z,4.65
2022-11-07T04:28:37.266Z,2.55
2022-11-07T04:31:14.682Z,3.63
2022-11-07T04:33:43.010Z,3.28
2022-11-07T04:36:17.562Z,4.03
2022-11-07T04:38:52.557Z,3.00
2022-11-07T04:41:23.815Z,3.38
2022-11-07T04:43:52.628Z,5.82
2022-11-07T04:46:23.684Z,3.28
2022-11-07T04:48:51.982Z,3.05
2022-11-07T04:51:23.331Z,3.17
2022-11-07T04:53:53.112Z,2.97
2022-11-07T04:56:21.480Z,3.90
2022-11-07T04:58:52.887Z,3.00
2022-11-07T05:01:21.151Z,4.68
2022-11-07T05:03:55.790Z,2.30
2022-11-07T05:06:27.579Z,5.78
2022-11-07T05:08:59.739Z,7.68
2022-11-07T05:11:32.929Z,4.88
2022-11-07T05:14:01.581Z,4.45
2022-11-07T05:16:38.090Z,4.20
2022-11-07T05:19:11.056Z,4.25
2022-11-07T05:21:41.540Z,5.40
2022-11-07T05:24:11.120Z,4.93
2022-11-07T05:26:44.990Z,4.43
2022-11-07T05:29:15.695Z,5.10
2022-11-07T05:31:46.708Z,4.45
2022-11-07T05:34:24.914Z,5.93
2022-11-07T05:36:53.382Z,6.07
2022-11-07T05:39:55.571Z,4.57
2022-11-07T05:42:38.116Z,6.28
2022-11-07T05:45:17.530Z,5.22
2022-11-07T05:47:45.978Z,5.72
2022-11-07T05:50:26.003Z,4.82
2022-11-07T05:52:54.674Z,7.25
2022-11-07T05:55:46.384Z,6.18
2022-11-07T05:58:27.768Z,5.97
2022-11-07T06:01:33.020Z,5.85
2022-11-07T06:04:14.329Z,5.22
2022-11-07T06:06:55.311Z,6.32
2022-11-07T06:09:31.012Z,5.60
2022-11-07T06:12:06.712Z,6.38
2022-11-07T06:14:38.566Z,5.72
2022-11-07T06:17:09.251Z,10.15
2022-11-07T06:19:41.430Z,5.68
2022-11-07T06:22:12.704Z,5.43
2022-11-07T06:24:41.071Z,8.75
2022-11-07T06:27:17.379Z,5.10
2022-11-07T06:29:50.325Z,5.25
2022-11-07T06:32:19.949Z,8.88
2022-11-07T06:35:00.755Z,4.93
2022-11-07T06:37:32.240Z,5.75
2022-11-07T06:40:06.589Z,6.18
2022-11-07T06:42:46.426Z,6.30
2022-11-07T06:45:16.510Z,5.15
2022-11-07T06:47:45.417Z,6.20
2022-11-07T06:50:23.760Z,6.47
2022-11-07T06:52:59.077Z,5.47
2022-11-07T06:55:27.453Z,6.97
2022-11-07T06:58:02.453Z,4.45
2022-11-07T07:00:31.399Z,6.20
2022-11-07T07:02:59.975Z,9.57
2022-11-07T07:05:28.611Z,4.93
2022-11-07T07:07:56.880Z,8.65
2022-11-07T07:10:26.158Z,6.95
2022-11-07T07:12:54.979Z,5.88
2022-11-07T07:15:24.877Z,7.55
2022-11-07T07:17:53.189Z,4.57
2022-11-07T07:20:21.540Z,5.05
2022-11-07T07:22:56.901Z,7.57
2022-11-07T07:25:27.636Z,5.53
2022-11-07T07:27:55.860Z,4.95
2022-11-07T07:30:25.491Z,5.75
2022-11-07T07:32:53.698Z,9.93
2022-11-07T07:35:22.138Z,6.90
2022-11-07T07:37:53.639Z,7.65
2022-11-07T07:40:22.459Z,5.22
2022-11-07T07:42:50.658Z,5.38
2022-11-07T07:45:19.248Z,5.05
2022-11-07T07:47:49.096Z,5.60
2022-11-07T07:50:17.495Z,4.70
2022-11-07T07:52:45.644Z,4.38
2022-11-07T07:55:13.914Z,4.93
2022-11-07T07:57:43.255Z,4.28
2022-11-07T08:00:13.008Z,4.63
2022-11-07T08:02:47.486Z,5.68
2022-11-07T08:05:28.867Z,6.95
2022-11-07T08:08:14.550Z,7.45
2022-11-07T08:10:55.643Z,7.78
2022-11-07T08:13:38.357Z,4.35
2022-11-07T08:16:08.775Z,5.57
2022-11-07T08:18:40.019Z,7.25
2022-11-07T08:21:10.015Z,5.15
2022-11-07T08:23:38.451Z,5.25
2022-11-07T08:26:07.352Z,11.02
2022-11-07T08:28:37.191Z,4.47
2022-11-07T08:31:08.039Z,8.82
2022-11-07T08:33:36.952Z,4.22
2022-11-07T08:36:07.554Z,5.53
2022-11-07T08:38:37.701Z,5.95
2022-11-07T08:41:06.600Z,3.90
2022-11-07T08:43:34.739Z,4.47
2022-11-07T08:46:03.001Z,4.78
2022-11-07T08:48:31.196Z,4.57
2022-11-07T08:50:59.754Z,3.97
2022-11-07T08:53:28.498Z,6.15
2022-11-07T08:56:04.012Z,4.10
2022-11-07T08:58:32.288Z,4.18
2022-11-07T09:01:01.496Z,3.92
2022-11-07T09:03:47.841Z,5.18
2022-11-07T09:06:25.263Z,9.63
2022-11-07T09:08:59.518Z,4.50
2022-11-07T09:11:36.067Z,6.18
2022-11-07T09:14:27.633Z,4.57
2022-11-07T09:16:55.804Z,5.57
2022-11-07T09:19:23.980Z,5.50
2022-11-07T09:21:52.114Z,4.63
2022-11-07T09:24:20.480Z,6.18
2022-11-07T09:26:50.254Z,4.50
2022-11-07T09:29:18.667Z,6.90
2022-11-07T09:31:46.990Z,5.68
2022-11-07T09:34:15.174Z,4.75
2022-11-07T09:36:43.566Z,4.95
2022-11-07T09:39:11.784Z,4.40
2022-11-07T09:41:54.419Z,3.28
2022-11-07T09:44:49.940Z,4.13
2022-11-07T09:47:22.635Z,4.47
2022-11-07T09:49:53.033Z,3.25
2022-11-07T09:52:27.192Z,3.78
2022-11-07T09:54:59.682Z,4.63
2022-11-07T09:57:34.403Z,4.57
2022-11-07T10:00:05.620Z,2.10
2022-11-07T10:02:36.779Z,4.50
2022-11-07T10:05:06.104Z,2.28
2022-11-07T10:07:43.146Z,2.13
2022-11-07T10:10:19.386Z,2.10
2022-11-07T10:13:09.513Z,2.58
2022-11-07T10:15:52.842Z,1.75
2022-11-07T10:18:33.855Z,2.03
2022-11-07T10:21:36.096Z,3.00
2022-11-07T10:24:19.534Z,2.88
2022-11-07T10:26:47.618Z,3.10
2022-11-07T10:29:19.240Z,2.60
2022-11-07T10:31:56.278Z,2.40
2022-11-07T10:34:30.638Z,1.92
2022-11-07T10:36:58.779Z,2.40
2022-11-07T10:39:27.003Z,2.47
2022-11-07T10:42:04.122Z,3.05
2022-11-07T10:44:35.186Z,2.10
2022-11-07T10:47:03.620Z,2.47
2022-11-07T10:49:33.625Z,2.92
2022-11-07T10:52:09.728Z,2.45
2022-11-07T10:54:37.846Z,2.70
2022-11-07T10:57:11.979Z,2.58
2022-11-07T10:59:46.647Z,2.92
2022-11-07T11:02:21.804Z,2.42
2022-11-07T11:04:51.837Z,3.33
2022-11-07T11:07:24.190Z,4.93
2022-11-07T11:09:57.165Z,2.33
2022-11-07T11:12:27.639Z,1.50
2022-11-07T11:15:12.073Z,1.30
2022-11-07T11:17:40.797Z,1.27
2022-11-07T11:20:31.134Z,0.95
2022-11-07T11:23:00.959Z,0.93
2022-11-07T11:25:29.174Z,1.20
2022-11-07T11:28:03.750Z,1.73
2022-11-07T11:30:37.211Z,1.45
2022-11-07T11:33:13.249Z,1.27
2022-11-07T11:35:48.228Z,1.42
2022-11-07T11:38:21.536Z,1.73
2022-11-07T11:41:01.545Z,1.38
2022-11-07T11:43:42.948Z,1.00
2022-11-07T11:46:17.942Z,1.10
2022-11-07T11:48:51.787Z,0.93
2022-11-07T11:51:31.175Z,1.10
2022-11-07T11:53:59.537Z,1.10
2022-11-07T11:56:38.966Z,1.30
2022-11-07T11:59:31.319Z,1.08
2022-11-07T12:02:17.763Z,1.75
2022-11-07T12:04:56.530Z,1.88
2022-11-07T12:07:43.212Z,1.23
2022-11-07T12:10:17.509Z,0.90
2022-11-07T12:12:57.249Z,1.05
2022-11-07T12:15:39.033Z,0.80
2022-11-07T12:18:16.501Z,1.05
2022-11-07T12:20:58.748Z,3.35
2022-11-07T12:23:43.470Z,1.15
2022-11-07T12:26:16.905Z,1.05
2022-11-07T12:28:53.338Z,1.08
2022-11-07T12:31:36.709Z,1.00
2022-11-07T12:34:17.113Z,0.93
2022-11-07T12:37:00.190Z,0.98
2022-11-07T12:39:48.011Z,1.10
2022-11-07T12:42:27.110Z,1.20
2022-11-07T12:45:06.342Z,0.98
2022-11-07T12:47:47.052Z,1.13
2022-11-07T12:50:32.381Z,1.02
2022-11-07T12:53:10.853Z,1.60
2022-11-07T12:55:44.064Z,1.00
2022-11-07T12:58:18.544Z,0.90
2022-11-07T13:00:47.765Z,1.15
2022-11-07T13:03:47.885Z,1.25
2022-11-07T13:06:24.660Z,0.93
2022-11-07T13:09:17.923Z,8.75
2022-11-07T13:11:54.206Z,1.00
2022-11-07T13:14:29.355Z,1.50
2022-11-07T13:17:13.509Z,0.80
2022-11-07T13:19:44.349Z,3.28
2022-11-07T13:22:32.184Z,2.42
2022-11-07T13:25:15.101Z,1.00
2022-11-07T13:27:46.840Z,2.10
2022-11-07T13:30:21.315Z,1.15
2022-11-07T13:32:51.105Z,1.58
2022-11-07T13:35:29.427Z,1.85
2022-11-07T13:38:08.308Z,1.48
2022-11-07T13:40:39.213Z,1.30
2022-11-07T13:43:14.157Z,1.60
2022-11-07T13:45:47.369Z,1.30
2022-11-07T13:48:20.119Z,1.20
2022-11-07T13:50:52.933Z,1.75
2022-11-07T13:53:28.698Z,2.22
2022-11-07T13:56:02.310Z,0.88
2022-11-07T13:58:34.764Z,1.08
2022-11-07T14:01:11.547Z,1.17
2022-11-07T14:03:40.453Z,1.08
2022-11-07T14:06:09.008Z,1.02
2022-11-07T14:08:40.997Z,1.42
2022-11-07T14:11:17.893Z,0.82
2022-11-07T14:13:49.548Z,1.00
2022-11-07T14:16:22.030Z,2.88
2022-11-07T14:18:52.408Z,1.40
2022-11-07T14:21:22.050Z,2.30
2022-11-07T14:23:51.867Z,1.27
2022-11-07T14:26:23.354Z,1.52
2022-11-07T14:28:53.968Z,1.02
2022-11-07T14:31:27.758Z,1.00
2022-11-07T14:33:58.663Z,1.67
2022-11-07T14:36:27.845Z,1.33
2022-11-07T14:39:04.501Z,1.17
2022-11-07T14:41:33.485Z,1.38
2022-11-07T14:44:05.331Z,5.40
2022-11-07T14:46:33.698Z,1.30
2022-11-07T14:49:01.975Z,1.08
2022-11-07T14:51:32.647Z,1.60
2022-11-07T14:54:06.300Z,2.00
2022-11-07T14:56:38.665Z,1.65
2022-11-07T14:59:10.673Z,1.27
2022-11-07T15:01:39.117Z,14.88
2022-11-07T15:04:18.213Z,1.48
2022-11-07T15:06:46.839Z,1.27
2022-11-07T15:09:18.558Z,1.20
2022-11-07T15:11:58.380Z,1.83
2022-11-07T15:14:32.451Z,1.80
2022-11-07T15:17:04.254Z,2.20
2022-11-07T15:19:35.673Z,2.28
2022-11-07T15:22:06.132Z,3.35
2022-11-07T15:24:41.563Z,4.63
2022-11-07T15:27:20.460Z,2.78
2022-11-07T15:29:53.229Z,4.07
2022-11-07T15:32:23.107Z,5.80
2022-11-07T15:35:07.960Z,3.20
2022-11-07T15:37:41.529Z,6.20
2022-11-07T15:40:18.558Z,4.22
2022-11-07T15:42:46.823Z,3.83
2022-11-07T15:45:15.312Z,4.93
2022-11-07T15:47:44.102Z,4.82
2022-11-07T15:50:17.737Z,6.15
2022-11-07T15:52:46.014Z,4.45
2022-11-07T15:55:17.655Z,2.88
2022-11-07T15:57:47.968Z,2.35
2022-11-07T16:00:17.984Z,3.13
2022-11-07T16:02:46.885Z,3.03
2022-11-07T16:05:16.377Z,2.92
2022-11-07T16:07:46.185Z,5.30
2022-11-07T16:10:22.023Z,7.20
2022-11-07T16:12:50.770Z,4.00
2022-11-07T16:15:21.241Z,7.53
2022-11-07T16:17:49.663Z,4.18
2022-11-07T16:20:19.479Z,3.97
2022-11-07T16:22:48.837Z,5.00
2022-11-07T16:25:22.104Z,3.22
2022-11-07T16:27:53.355Z,9.27
2022-11-07T16:30:22.172Z,3.75
2022-11-07T16:32:50.595Z,7.20
2022-11-07T16:35:19.950Z,3.58
2022-11-07T16:37:48.772Z,10.73
2022-11-07T16:40:20.439Z,4.00
2022-11-07T16:42:48.748Z,4.82
2022-11-07T16:45:19.302Z,4.28
2022-11-07T16:47:47.883Z,4.20
2022-11-07T16:50:17.796Z,4.20
2022-11-07T16:52:46.226Z,6.25
2022-11-07T16:55:20.751Z,4.90
2022-11-07T16:57:49.448Z,15.70
2022-11-07T17:00:19.954Z,5.72
2022-11-07T17:02:48.882Z,6.43
2022-11-07T17:05:17.448Z,5.72
2022-11-07T17:07:45.747Z,4.88
2022-11-07T17:10:17.586Z,3.55
2022-11-07T17:12:47.430Z,4.47
2022-11-07T17:15:15.632Z,5.70
2022-11-07T17:17:44.060Z,4.70
2022-11-07T17:20:41.081Z,4.25
2022-11-07T17:23:09.977Z,3.67
2022-11-07T17:25:39.295Z,6.07
2022-11-07T17:28:09.576Z,4.68
2022-11-07T17:30:38.014Z,8.55
2022-11-07T17:33:06.197Z,6.35
2022-11-07T17:35:35.390Z,9.55
2022-11-07T17:38:03.977Z,5.43
2022-11-07T17:40:34.504Z,5.65
2022-11-07T17:43:03.160Z,4.20
2022-11-07T17:45:33.190Z,5.25
2022-11-07T17:48:01.542Z,4.63
2022-11-07T17:50:30.002Z,5.22
2022-11-07T17:52:58.302Z,7.60
2022-11-07T17:55:26.644Z,4.72
2022-11-07T17:57:55.036Z,5.78
2022-11-07T18:00:27.296Z,7.35
2022-11-07T18:02:57.239Z,4.80
2022-11-07T18:05:32.800Z,5.40
2022-11-07T18:08:02.674Z,6.60
2022-11-07T18:10:31.057Z,7.47
2022-11-07T18:12:59.240Z,5.22
2022-11-07T18:15:27.585Z,8.27
2022-11-07T18:17:57.209Z,7.68
2022-11-07T18:20:26.042Z,9.98
2022-11-07T18:22:54.476Z,14.30
2022-11-07T18:25:22.773Z,8.30
2022-11-07T18:27:51.172Z,7.43
2022-11-07T18:30:19.591Z,10.57
2022-11-07T18:32:47.863Z,7.38
2022-11-07T18:35:17.718Z,9.50
2022-11-07T18:37:46.024Z,13.60
2022-11-07T18:40:14.990Z,13.45
2022-11-07T18:42:46.875Z,12.43
2022-11-07T18:45:15.447Z,12.23
2022-11-07T18:47:43.718Z,11.43
2022-11-07T18:50:12.606Z,9.88
2022-11-07T18:52:42.429Z,12.07
2022-11-07T18:55:11.227Z,15.32
2022-11-07T18:57:39.451Z,21.48
2022-11-07T19:00:13.418Z,13.60
2022-11-07T19:02:42.310Z,13.38
2022-11-07T19:05:10.784Z,24.73
2022-11-07T19:07:42.974Z,13.07
2022-11-07T19:10:13.882Z,15.68
2022-11-07T19:12:42.733Z,20.27
2022-11-07T19:15:12.183Z,24.45
2022-11-07T19:17:40.796Z,22.02
2022-11-07T19:20:10.152Z,18.23
2022-11-07T19:22:38.382Z,18.25
2022-11-07T19:25:07.180Z,15.90
2022-11-07T19:27:37.267Z,12.93
2022-11-07T19:30:06.768Z,14.18
2022-11-07T19:32:35.180Z,13.80
2022-11-07T19:35:03.504Z,18.10
2022-11-07T19:37:31.813Z,11.65
2022-11-07T19:40:00.170Z,13.27
2022-11-07T19:42:28.773Z,11.93
2022-11-07T19:44:58.626Z,10.95
2022-11-07T19:47:26.860Z,12.48
2022-11-07T19:49:55.408Z,15.48
2022-11-07T19:52:23.731Z,9.70
2022-11-07T19:54:52.533Z,25.77
2022-11-07T19:57:21.403Z,11.35
2022-11-07T19:59:49.813Z,11.73
2022-11-07T20:02:33.150Z,13.43
2022-11-07T20:05:01.909Z,25.58
2022-11-07T20:07:30.301Z,12.43
2022-11-07T20:09:58.922Z,12.85
2022-11-07T20:12:27.230Z,14.30
2022-11-07T20:14:55.500Z,12.80
2022-11-07T20:17:25.236Z,15.65
2022-11-07T20:19:53.614Z,14.88
2022-11-07T20:22:22.061Z,14.23
2022-11-07T20:24:50.779Z,21.40
2022-11-07T20:27:19.118Z,15.50
2022-11-07T20:29:47.420Z,14.70
2022-11-07T20:32:15.779Z,15.20
2022-11-07T20:34:49.924Z,10.82
2022-11-07T20:37:21.909Z,10.43
2022-11-07T20:39:50.676Z,13.23
2022-11-07T20:42:19.266Z,16.63
2022-11-07T20:44:48.203Z,12.90
2022-11-07T20:47:16.450Z,11.55
2022-11-07T20:49:46.250Z,11.52
2022-11-07T20:52:14.779Z,20.40
2022-11-07T20:54:43.222Z,11.90
2022-11-07T20:57:11.570Z,10.98
2022-11-07T20:59:41.335Z,11.40
2022-11-07T21:02:13.260Z,11.40
2022-11-07T21:05:03.302Z,12.88
2022-11-07T21:07:32.196Z,11.32
2022-11-07T21:10:00.435Z,14.25
2022-11-07T21:12:28.720Z,9.35
2022-11-07T21:14:57.003Z,9.82
2022-11-07T21:17:25.353Z,13.02
2022-11-07T21:19:53.647Z,10.25
2022-11-07T21:22:26.619Z,8.30
2022-11-07T21:24:58.727Z,8.60
2022-11-07T21:27:26.925Z,10.13
2022-11-07T21:29:55.193Z,10.05
2022-11-07T21:32:23.557Z,9.45
2022-11-07T21:34:51.989Z,10.10
2022-11-07T21:37:20.440Z,11.25
2022-11-07T21:39:48.789Z,11.18
2022-11-07T21:42:18.493Z,10.45
2022-11-07T21:44:46.760Z,8.75
2022-11-07T21:47:15.090Z,7.88
2022-11-07T21:49:43.372Z,11.57
2022-11-07T21:52:12.027Z,8.60
2022-11-07T21:54:40.263Z,23.00
2022-11-07T21:57:08.593Z,13.30
2022-11-07T21:59:38.413Z,11.40
2022-11-07T22:02:06.892Z,11.20
2022-11-07T22:04:35.257Z,15.93
2022-11-07T22:07:03.552Z,14.32
2022-11-07T22:09:32.144Z,14.35
2022-11-07T22:12:00.505Z,15.25
2022-11-07T22:14:28.889Z,11.05
2022-11-07T22:16:58.799Z,9.65
2022-11-07T22:19:27.641Z,10.05
2022-11-07T22:21:56.029Z,10.35
2022-11-07T22:24:27.345Z,8.48
2022-11-07T22:26:57.265Z,10.20
2022-11-07T22:29:25.714Z,11.10
2022-11-07T22:31:54.028Z,10.35
2022-11-07T22:34:24.039Z,14.98
2022-11-07T22:36:52.579Z,11.02
2022-11-07T22:39:20.898Z,8.90
2022-11-07T22:41:49.580Z,8.52
2022-11-07T22:44:17.793Z,12.18
2022-11-07T22:46:46.118Z,12.85
2022-11-07T22:49:14.397Z,11.50
2022-11-07T22:51:44.041Z,8.63
2022-11-07T22:54:14.061Z,9.27
2022-11-07T22:56:42.669Z,11.13
2022-11-07T22:59:12.596Z,8.23
2022-11-07T23:01:43.321Z,9.00
2022-11-07T23:04:15.660Z,13.15
2022-11-07T23:06:46.018Z,8.93
2022-11-07T23:09:15.770Z,11.73
2022-11-07T23:11:46.911Z,10.20
2022-11-07T23:14:17.284Z,6.53
2022-11-07T23:16:47.921Z,7.50
2022-11-07T23:19:18.476Z,9.77
2022-11-07T23:21:49.053Z,8.70
2022-11-07T23:24:17.416Z,10.20
2022-11-07T23:26:46.134Z,8.32
2022-11-07T23:29:15.954Z,18.60
2022-11-07T23:31:46.999Z,10.68
2022-11-07T23:34:15.840Z,12.18
2022-11-07T23:36:45.128Z,8.07
2022-11-07T23:39:17.537Z,6.93
2022-11-07T23:41:46.399Z,6.85
2022-11-07T23:44:15.681Z,10.23
2022-11-07T23:47:01.937Z,9.20
2022-11-07T23:49:50.185Z,10.15
2022-11-07T23:52:18.812Z,10.40
2022-11-07T23:55:05.940Z,10.00
2022-11-07T23:57:58.430Z,10.55
